createdAt,value
2017-11-29T00:02:22.483Z,9.40
2017-11-29T00:04:56.918Z,9.05
2017-11-29T00:07:31.362Z,6.20
2017-11-29T00:10:05.889Z,6.10
2017-11-29T00:12:40.338Z,8.18
2017-11-29T00:15:14.854Z,9.70
2017-11-29T00:17:49.356Z,7.60
2017-11-29T00:20:23.766Z,8.70
2017-11-29T00:22:58.249Z,7.03
2017-11-29T00:25:32.706Z,8.48
2017-11-29T00:28:07.216Z,9.57
2017-11-29T00:30:41.656Z,9.60
2017-11-29T00:33:16.020Z,10.65
2017-11-29T00:35:50.477Z,13.50
2017-11-29T00:38:24.853Z,12.60
2017-11-29T00:41:00.089Z,10.80
2017-11-29T00:43:34.538Z,9.95
2017-11-29T00:46:08.961Z,9.23
2017-11-29T00:48:43.503Z,12.35
2017-11-29T00:51:17.825Z,13.43
2017-11-29T00:53:53.056Z,9.60
2017-11-29T00:56:27.550Z,11.93
2017-11-29T00:59:02.855Z,11.93
2017-11-29T01:01:37.460Z,14.93
2017-11-29T01:04:11.910Z,12.80
2017-11-29T01:06:46.243Z,12.77
2017-11-29T01:09:21.017Z,14.30
2017-11-29T01:11:55.349Z,16.60
2017-11-29T01:14:30.443Z,13.35
2017-11-29T01:17:04.749Z,16.80
2017-11-29T01:19:39.301Z,15.73
2017-11-29T01:22:13.831Z,22.30
2017-11-29T01:24:48.954Z,16.70
2017-11-29T01:27:23.237Z,12.50
2017-11-29T01:29:57.543Z,13.38
2017-11-29T01:32:31.998Z,16.33
2017-11-29T01:35:06.529Z,24.45
2017-11-29T01:37:41.186Z,16.80
2017-11-29T01:40:15.608Z,15.90
2017-11-29T01:42:49.964Z,19.00
2017-11-29T01:45:24.303Z,16.00
2017-11-29T01:47:58.755Z,16.62
2017-11-29T01:50:33.949Z,16.75
2017-11-29T01:53:08.326Z,15.55
2017-11-29T01:55:42.802Z,14.73
2017-11-29T01:58:17.139Z,18.52
2017-11-29T02:00:51.588Z,17.80
2017-11-29T02:03:25.907Z,22.05
2017-11-29T02:06:01.192Z,16.92
2017-11-29T02:08:35.596Z,17.98
2017-11-29T02:11:10.022Z,16.98
2017-11-29T02:13:44.461Z,25.80
2017-11-29T02:16:18.974Z,22.77
2017-11-29T02:18:53.338Z,15.35
2017-11-29T02:21:27.822Z,16.15
2017-11-29T02:24:02.235Z,17.85
2017-11-29T02:26:36.824Z,14.65
2017-11-29T02:29:12.019Z,17.33
2017-11-29T02:31:46.369Z,16.20
2017-11-29T02:34:21.554Z,16.98
2017-11-29T02:36:56.045Z,28.00
2017-11-29T02:39:30.401Z,18.95
2017-11-29T02:42:16.389Z,13.20
2017-11-29T02:44:50.761Z,16.62
2017-11-29T02:47:25.936Z,17.73
2017-11-29T02:50:01.103Z,14.15
2017-11-29T02:52:36.321Z,17.80
2017-11-29T02:55:10.777Z,23.23
2017-11-29T02:57:45.106Z,16.55
2017-11-29T03:00:19.590Z,17.90
2017-11-29T03:02:54.143Z,15.70
2017-11-29T03:05:28.721Z,14.82
2017-11-29T03:08:03.048Z,14.75
2017-11-29T03:10:37.588Z,20.12
2017-11-29T03:13:12.807Z,18.85
2017-11-29T03:15:47.225Z,25.67
2017-11-29T03:18:21.584Z,20.58
2017-11-29T03:20:55.937Z,20.37
2017-11-29T03:23:30.469Z,17.48
2017-11-29T03:26:04.964Z,17.05
2017-11-29T03:28:39.335Z,19.60
2017-11-29T03:31:13.934Z,15.82
2017-11-29T03:33:48.253Z,18.25
2017-11-29T03:36:22.699Z,18.50
2017-11-29T03:38:57.893Z,14.07
2017-11-29T03:41:32.244Z,20.77
2017-11-29T03:44:06.762Z,14.00
2017-11-29T03:46:41.212Z,17.98
2017-11-29T03:49:15.625Z,15.00
2017-11-29T03:51:49.942Z,18.05
2017-11-29T03:54:24.456Z,14.10
2017-11-29T03:56:58.852Z,17.52
2017-11-29T03:59:33.290Z,14.20
2017-11-29T04:02:07.801Z,13.70
2017-11-29T04:04:42.385Z,12.40
2017-11-29T04:07:16.872Z,18.15
2017-11-29T04:09:51.324Z,13.60
2017-11-29T04:12:25.656Z,15.63
2017-11-29T04:15:00.073Z,10.57
2017-11-29T04:17:34.433Z,11.82
2017-11-29T04:20:08.921Z,13.25
2017-11-29T04:22:43.226Z,9.52
2017-11-29T04:25:17.674Z,14.82
2017-11-29T04:27:52.162Z,12.32
2017-11-29T04:30:26.540Z,9.50
2017-11-29T04:33:01.736Z,13.70
2017-11-29T04:35:36.145Z,14.00
2017-11-29T04:38:10.594Z,12.63
2017-11-29T04:40:45.787Z,14.02
2017-11-29T04:43:20.257Z,13.20
2017-11-29T04:45:58.732Z,14.77
2017-11-29T04:48:33.979Z,12.73
2017-11-29T04:51:08.477Z,14.87
2017-11-29T04:53:42.932Z,13.90
2017-11-29T04:56:17.257Z,15.10
2017-11-29T04:58:51.652Z,14.98
2017-11-29T05:01:25.938Z,16.60
2017-11-29T05:04:00.409Z,12.88
2017-11-29T05:06:34.855Z,15.07
2017-11-29T05:09:09.306Z,20.90
2017-11-29T05:11:43.765Z,16.58
2017-11-29T05:14:18.066Z,15.73
2017-11-29T05:16:52.527Z,17.62
2017-11-29T05:19:26.912Z,16.20
2017-11-29T05:22:01.213Z,17.12
2017-11-29T05:24:35.718Z,17.83
2017-11-29T05:27:10.211Z,16.25
2017-11-29T05:29:44.803Z,15.23
2017-11-29T05:32:19.239Z,16.20
2017-11-29T05:34:53.786Z,16.92
2017-11-29T05:37:28.134Z,18.00
2017-11-29T05:40:02.608Z,17.40
2017-11-29T05:42:37.801Z,17.62
2017-11-29T05:45:12.179Z,15.27
2017-11-29T05:47:46.615Z,19.17
2017-11-29T05:50:21.066Z,17.52
2017-11-29T05:52:55.538Z,16.77
2017-11-29T05:55:30.033Z,14.60
2017-11-29T05:58:05.262Z,13.93
2017-11-29T06:00:39.801Z,18.50
2017-11-29T06:03:14.242Z,20.45
2017-11-29T06:05:48.621Z,23.02
2017-11-29T06:08:23.113Z,19.67
2017-11-29T06:10:57.550Z,17.55
2017-11-29T06:13:32.699Z,19.20
2017-11-29T06:16:07.100Z,16.52
2017-11-29T06:18:41.491Z,21.50
2017-11-29T06:21:15.860Z,22.73
2017-11-29T06:23:50.332Z,21.40
2017-11-29T06:26:24.754Z,26.52
2017-11-29T06:28:59.123Z,23.98
2017-11-29T06:31:33.552Z,19.75
2017-11-29T06:34:07.873Z,20.23
2017-11-29T06:36:42.357Z,16.55
2017-11-29T06:39:17.426Z,23.20
2017-11-29T06:41:51.883Z,22.52
2017-11-29T06:44:26.272Z,23.17
2017-11-29T06:47:00.679Z,21.75
2017-11-29T06:49:35.035Z,26.60
2017-11-29T06:52:10.184Z,18.10
2017-11-29T06:54:44.628Z,26.10
2017-11-29T06:57:19.100Z,18.65
2017-11-29T06:59:53.468Z,28.70
2017-11-29T07:02:28.033Z,24.30
2017-11-29T07:05:02.450Z,29.73
2017-11-29T07:07:36.829Z,21.02
2017-11-29T07:10:11.344Z,29.50
2017-11-29T07:12:45.786Z,25.00
2017-11-29T07:15:20.916Z,22.80
2017-11-29T07:17:55.345Z,25.23
2017-11-29T07:20:30.198Z,24.65
2017-11-29T07:23:04.722Z,26.17
2017-11-29T07:25:39.043Z,23.17
2017-11-29T07:28:13.505Z,25.37
2017-11-29T07:30:47.960Z,25.33
2017-11-29T07:33:22.349Z,27.70
2017-11-29T07:35:56.706Z,23.52
2017-11-29T07:38:31.074Z,23.40
2017-11-29T07:41:05.403Z,28.90
2017-11-29T07:43:39.947Z,28.27
2017-11-29T07:46:14.362Z,24.67
2017-11-29T07:48:48.840Z,25.45
2017-11-29T07:51:23.233Z,26.80
2017-11-29T07:53:57.700Z,25.52
2017-11-29T07:56:32.050Z,29.00
2017-11-29T07:59:06.581Z,26.98
2017-11-29T08:01:41.814Z,27.70
2017-11-29T08:04:16.130Z,29.02
2017-11-29T08:06:50.479Z,27.20
2017-11-29T08:09:24.932Z,29.40
2017-11-29T08:11:59.383Z,26.50
2017-11-29T08:14:33.689Z,26.15
2017-11-29T08:17:08.908Z,23.92
2017-11-29T08:19:43.263Z,29.37
2017-11-29T08:22:17.761Z,27.40
2017-11-29T08:24:52.308Z,29.60
2017-11-29T08:27:26.668Z,25.00
2017-11-29T08:30:00.981Z,30.58
2017-11-29T08:32:35.462Z,25.33
2017-11-29T08:35:09.934Z,25.27
2017-11-29T08:37:44.293Z,21.95
2017-11-29T08:40:18.589Z,21.90
2017-11-29T08:42:53.692Z,22.35
2017-11-29T08:45:28.170Z,25.33
2017-11-29T08:48:02.671Z,23.48
2017-11-29T08:50:37.295Z,23.42
2017-11-29T08:53:11.782Z,21.67
2017-11-29T08:55:46.237Z,23.73
2017-11-29T08:58:20.575Z,28.60
2017-11-29T09:00:55.078Z,24.73
2017-11-29T09:03:30.342Z,18.85
2017-11-29T09:06:04.680Z,22.75
2017-11-29T09:08:39.067Z,26.67
2017-11-29T09:11:14.293Z,25.42
2017-11-29T09:13:48.856Z,16.52
2017-11-29T09:16:23.354Z,16.20
2017-11-29T09:18:57.836Z,17.00
2017-11-29T09:21:32.257Z,17.60
2017-11-29T09:24:06.754Z,17.50
2017-11-29T09:26:41.302Z,16.83
2017-11-29T09:29:15.784Z,19.95
2017-11-29T09:31:50.855Z,15.40
2017-11-29T09:34:26.062Z,16.48
2017-11-29T09:37:00.387Z,16.45
2017-11-29T09:39:34.753Z,24.35
2017-11-29T09:42:09.295Z,14.05
2017-11-29T09:44:44.472Z,14.55
2017-11-29T09:47:18.803Z,18.30
2017-11-29T09:49:53.172Z,13.23
2017-11-29T09:52:27.722Z,13.98
2017-11-29T09:55:03.063Z,12.25
2017-11-29T09:57:38.366Z,11.35
2017-11-29T10:00:12.815Z,12.52
2017-11-29T10:02:47.185Z,13.88
2017-11-29T10:05:21.506Z,11.52
2017-11-29T10:07:56.004Z,14.32
2017-11-29T10:10:30.491Z,15.15
2017-11-29T10:13:04.858Z,17.70
2017-11-29T10:15:39.278Z,13.05
2017-11-29T10:18:13.685Z,16.10
2017-11-29T10:20:48.976Z,13.57
2017-11-29T10:23:23.502Z,12.50
2017-11-29T10:25:57.866Z,14.68
2017-11-29T10:28:32.204Z,14.87
2017-11-29T10:31:06.586Z,15.23
2017-11-29T10:33:41.046Z,16.40
2017-11-29T10:36:15.488Z,18.62
2017-11-29T10:38:49.853Z,18.30
2017-11-29T10:41:24.928Z,21.50
2017-11-29T10:43:59.267Z,17.60
2017-11-29T10:46:33.868Z,15.65
2017-11-29T10:49:09.106Z,15.88
2017-11-29T10:51:43.528Z,17.05
2017-11-29T10:54:18.018Z,20.20
2017-11-29T10:56:52.575Z,17.10
2017-11-29T10:59:26.905Z,16.20
2017-11-29T11:02:02.116Z,15.98
2017-11-29T11:04:36.605Z,20.58
2017-11-29T11:07:11.028Z,18.85
2017-11-29T11:09:45.391Z,19.52
2017-11-29T11:12:19.866Z,14.98
2017-11-29T11:14:54.268Z,23.80
2017-11-29T11:17:28.879Z,18.00
2017-11-29T11:20:03.350Z,14.50
2017-11-29T11:22:37.845Z,15.00
2017-11-29T11:25:12.397Z,16.73
2017-11-29T11:27:46.923Z,20.00
2017-11-29T11:30:21.331Z,19.33
2017-11-29T11:32:56.441Z,17.05
2017-11-29T11:35:30.847Z,16.15
2017-11-29T11:38:05.285Z,18.70
2017-11-29T11:40:39.736Z,19.48
2017-11-29T11:43:14.254Z,21.12
2017-11-29T11:45:48.761Z,19.95
2017-11-29T11:48:23.213Z,19.62
2017-11-29T11:50:57.663Z,21.37
2017-11-29T11:53:32.846Z,20.70
2017-11-29T11:56:07.266Z,20.85
2017-11-29T11:58:41.581Z,23.65
2017-11-29T12:01:16.841Z,20.08
2017-11-29T12:03:51.136Z,18.65
2017-11-29T12:06:25.494Z,21.08
2017-11-29T12:08:59.946Z,21.65
2017-11-29T12:11:34.435Z,21.55
2017-11-29T12:14:08.879Z,20.00
2017-11-29T12:16:43.284Z,23.83
2017-11-29T12:19:17.786Z,24.15
2017-11-29T12:21:52.237Z,17.58
2017-11-29T12:24:26.552Z,22.75
2017-11-29T12:27:00.901Z,18.75
2017-11-29T12:29:35.320Z,26.62
2017-11-29T12:32:09.700Z,22.37
2017-11-29T12:34:44.318Z,21.75
2017-11-29T12:37:18.840Z,23.92
2017-11-29T12:39:53.321Z,23.90
2017-11-29T12:42:27.706Z,22.90
2017-11-29T12:45:02.047Z,27.48
2017-11-29T12:47:41.183Z,22.20
2017-11-29T12:50:28.763Z,24.73
2017-11-29T12:53:03.393Z,26.80
2017-11-29T12:55:37.883Z,22.10
2017-11-29T12:58:12.208Z,30.27
2017-11-29T13:00:48.009Z,21.58
2017-11-29T13:03:22.540Z,23.58
2017-11-29T13:05:56.966Z,23.00
2017-11-29T13:08:31.487Z,30.98
2017-11-29T13:11:05.890Z,29.08
2017-11-29T13:13:40.303Z,29.37
2017-11-29T13:16:15.562Z,26.92
2017-11-29T13:18:49.941Z,25.58
2017-11-29T13:21:24.501Z,28.73
2017-11-29T13:23:59.285Z,24.02
2017-11-29T13:26:41.271Z,25.15
2017-11-29T13:29:15.637Z,24.30
2017-11-29T13:31:50.134Z,23.65
2017-11-29T13:34:24.586Z,25.88
2017-11-29T13:36:59.231Z,25.30
2017-11-29T13:39:33.715Z,23.70
2017-11-29T13:42:08.330Z,25.95
2017-11-29T13:44:42.906Z,29.33
2017-11-29T13:47:17.461Z,26.15
2017-11-29T13:49:51.926Z,28.45
2017-11-29T13:52:26.363Z,28.50
2017-11-29T13:55:00.947Z,32.20
2017-11-29T13:57:35.460Z,34.58
2017-11-29T14:00:09.809Z,28.80
2017-11-29T14:02:45.781Z,38.38
2017-11-29T14:05:21.005Z,32.50
2017-11-29T14:07:55.334Z,37.60
2017-11-29T14:10:29.753Z,27.90
2017-11-29T14:13:04.302Z,33.58
2017-11-29T14:15:41.126Z,32.50
2017-11-29T14:18:15.676Z,29.80
2017-11-29T14:20:49.990Z,30.30
2017-11-29T14:23:24.569Z,25.35
2017-11-29T14:25:59.160Z,28.77
2017-11-29T14:28:34.358Z,39.55
2017-11-29T14:31:09.920Z,29.52
2017-11-29T14:33:46.419Z,31.73
2017-11-29T14:36:20.870Z,25.80
2017-11-29T14:38:55.394Z,25.48
2017-11-29T14:41:29.958Z,24.00
2017-11-29T14:44:05.380Z,28.12
2017-11-29T14:46:39.858Z,32.78
2017-11-29T14:49:14.273Z,29.73
2017-11-29T14:51:48.626Z,26.98
2017-11-29T14:54:23.177Z,33.30
2017-11-29T14:56:57.668Z,31.27
2017-11-29T14:59:32.002Z,38.15
2017-11-29T15:02:06.409Z,34.45
2017-11-29T15:04:40.926Z,38.63
2017-11-29T15:07:15.492Z,29.30
2017-11-29T15:09:49.961Z,40.85
2017-11-29T15:12:24.487Z,38.13
2017-11-29T15:14:58.944Z,30.92
2017-11-29T15:17:33.244Z,34.50
2017-11-29T15:20:07.547Z,39.50
2017-11-29T15:22:41.999Z,35.15
2017-11-29T15:25:16.358Z,33.85
2017-11-29T15:27:50.809Z,38.05
2017-11-29T15:30:25.924Z,42.85
2017-11-29T15:33:01.944Z,37.83
2017-11-29T15:35:36.858Z,32.70
2017-11-29T15:38:11.536Z,37.13
2017-11-29T15:40:46.007Z,35.92
2017-11-29T15:43:20.533Z,32.92
2017-11-29T15:45:54.833Z,23.12
2017-11-29T15:48:33.717Z,24.23
2017-11-29T15:51:08.183Z,19.23
2017-11-29T15:53:42.517Z,22.27
2017-11-29T15:56:17.020Z,20.65
2017-11-29T15:58:51.581Z,25.20
2017-11-29T16:01:25.925Z,28.42
2017-11-29T16:04:00.397Z,26.20
2017-11-29T16:06:34.854Z,25.20
2017-11-29T16:09:09.284Z,22.13
2017-11-29T16:11:43.682Z,23.83
2017-11-29T16:14:18.181Z,23.33
2017-11-29T16:16:53.465Z,17.70
2017-11-29T16:19:27.870Z,19.98
2017-11-29T16:22:02.353Z,18.80
2017-11-29T16:24:36.688Z,19.30
2017-11-29T16:27:11.193Z,16.62
2017-11-29T16:29:45.652Z,13.43
2017-11-29T16:32:20.097Z,15.05
2017-11-29T16:34:54.654Z,14.38
2017-11-29T16:37:29.099Z,13.40
2017-11-29T16:40:03.704Z,12.80
2017-11-29T16:42:38.085Z,11.32
2017-11-29T16:45:12.549Z,14.30
2017-11-29T16:47:47.960Z,12.15
2017-11-29T16:50:23.210Z,13.85
2017-11-29T16:52:57.658Z,12.88
2017-11-29T16:55:32.298Z,13.02
2017-11-29T16:58:06.699Z,11.52
2017-11-29T17:00:41.107Z,10.70
2017-11-29T17:03:16.232Z,15.55
2017-11-29T17:05:50.744Z,10.18
2017-11-29T17:08:25.262Z,13.68
2017-11-29T17:11:00.869Z,10.82
2017-11-29T17:13:36.346Z,8.98
2017-11-29T17:16:10.888Z,9.77
2017-11-29T17:18:45.284Z,13.27
2017-11-29T17:21:19.809Z,10.00
2017-11-29T17:23:54.174Z,10.38
2017-11-29T17:26:29.221Z,10.93
2017-11-29T17:29:03.567Z,12.95
2017-11-29T17:31:38.002Z,15.68
2017-11-29T17:34:12.421Z,14.55
2017-11-29T17:36:46.813Z,17.90
2017-11-29T17:39:21.368Z,14.00
2017-11-29T17:41:55.733Z,15.75
2017-11-29T17:44:30.066Z,13.55
2017-11-29T17:47:04.561Z,14.32
2017-11-29T17:49:38.990Z,14.15
2017-11-29T17:52:13.325Z,14.20
2017-11-29T17:54:47.811Z,14.32
2017-11-29T17:57:22.322Z,13.57
2017-11-29T17:59:56.633Z,11.55
2017-11-29T18:02:30.965Z,15.68
2017-11-29T18:05:06.084Z,14.63
2017-11-29T18:07:40.619Z,12.77
2017-11-29T18:10:15.045Z,12.35
2017-11-29T18:12:49.387Z,17.25
2017-11-29T18:15:25.262Z,13.65
2017-11-29T18:17:59.597Z,14.13
2017-11-29T18:20:34.338Z,17.23
2017-11-29T18:23:08.828Z,12.02
2017-11-29T18:25:43.374Z,12.90
2017-11-29T18:28:17.861Z,13.05
2017-11-29T18:30:52.369Z,13.85
2017-11-29T18:33:26.947Z,13.25
2017-11-29T18:36:01.574Z,16.58
2017-11-29T18:38:35.970Z,14.10
2017-11-29T18:41:10.480Z,11.85
2017-11-29T18:43:44.932Z,13.45
2017-11-29T18:46:19.493Z,13.88
2017-11-29T18:48:53.923Z,16.87
2017-11-29T18:51:28.277Z,12.68
2017-11-29T18:54:02.892Z,14.20
2017-11-29T18:56:37.344Z,14.87
2017-11-29T18:59:11.905Z,13.82
2017-11-29T19:01:46.523Z,15.48
2017-11-29T19:04:21.036Z,12.07
2017-11-29T19:06:55.810Z,14.65
2017-11-29T19:09:30.342Z,18.73
2017-11-29T19:12:04.993Z,13.65
2017-11-29T19:14:39.610Z,13.45
2017-11-29T19:17:16.344Z,15.57
2017-11-29T19:19:50.685Z,12.48
2017-11-29T19:22:25.278Z,12.57
2017-11-29T19:24:59.689Z,11.82
2017-11-29T19:27:35.586Z,13.10
2017-11-29T19:30:12.930Z,15.52
2017-11-29T19:32:47.451Z,15.18
2017-11-29T19:35:22.001Z,12.23
2017-11-29T19:37:56.478Z,14.18
2017-11-29T19:40:30.910Z,17.45
2017-11-29T19:43:05.770Z,16.05
2017-11-29T19:45:40.256Z,16.02
2017-11-29T19:48:14.743Z,15.50
2017-11-29T19:50:49.206Z,14.13
2017-11-29T19:53:23.641Z,14.68
2017-11-29T19:55:58.510Z,16.33
2017-11-29T19:58:33.728Z,17.20
2017-11-29T20:01:08.086Z,19.05
2017-11-29T20:03:43.198Z,18.50
2017-11-29T20:06:18.328Z,18.27
2017-11-29T20:08:52.827Z,16.20
2017-11-29T20:11:27.714Z,18.55
2017-11-29T20:14:02.209Z,16.33
2017-11-29T20:16:36.754Z,19.85
2017-11-29T20:19:11.297Z,18.45
2017-11-29T20:21:45.782Z,19.17
2017-11-29T20:24:20.244Z,20.27
2017-11-29T20:26:54.720Z,18.95
2017-11-29T20:29:29.865Z,19.67
2017-11-29T20:32:04.171Z,21.45
2017-11-29T20:34:38.718Z,18.95
2017-11-29T20:37:13.266Z,17.67
2017-11-29T20:39:49.227Z,20.95
2017-11-29T20:42:23.768Z,21.50
2017-11-29T20:44:58.220Z,21.33
2017-11-29T20:47:32.916Z,18.37
2017-11-29T20:50:07.238Z,13.73
2017-11-29T20:52:53.383Z,23.12
2017-11-29T20:55:28.959Z,17.00
2017-11-29T20:58:04.224Z,21.08
2017-11-29T21:00:38.572Z,21.60
2017-11-29T21:03:13.052Z,22.92
2017-11-29T21:05:47.432Z,20.50
2017-11-29T21:08:21.716Z,21.65
2017-11-29T21:10:56.173Z,19.77
2017-11-29T21:13:30.636Z,20.02
2017-11-29T21:16:05.203Z,21.83
2017-11-29T21:18:39.684Z,28.55
2017-11-29T21:21:14.174Z,28.80
2017-11-29T21:23:48.724Z,22.05
2017-11-29T21:26:23.209Z,29.65
2017-11-29T21:28:57.691Z,20.95
2017-11-29T21:31:32.205Z,20.98
2017-11-29T21:34:06.579Z,24.23
2017-11-29T21:36:41.031Z,25.85
2017-11-29T21:39:15.548Z,16.77
2017-11-29T21:41:49.866Z,22.00
2017-11-29T21:44:24.353Z,23.73
2017-11-29T21:46:58.873Z,19.08
2017-11-29T21:49:34.054Z,26.08
2017-11-29T21:52:09.161Z,28.52
2017-11-29T21:54:43.664Z,32.15
2017-11-29T21:57:18.114Z,21.75
2017-11-29T21:59:52.484Z,24.30
2017-11-29T22:02:27.645Z,23.58
2017-11-29T22:05:02.107Z,25.67
2017-11-29T22:07:36.666Z,22.80
2017-11-29T22:10:11.868Z,27.25
2017-11-29T22:12:46.259Z,21.00
2017-11-29T22:15:20.700Z,34.53
2017-11-29T22:17:55.156Z,32.45
2017-11-29T22:20:29.523Z,25.05
2017-11-29T22:23:04.001Z,27.33
2017-11-29T22:25:38.318Z,33.42
2017-11-29T22:28:12.956Z,35.30
2017-11-29T22:30:47.308Z,25.60
2017-11-29T22:33:22.864Z,26.17
2017-11-29T22:35:57.233Z,29.17
2017-11-29T22:38:32.306Z,29.55
2017-11-29T22:41:06.759Z,25.50
2017-11-29T22:43:41.984Z,31.02
2017-11-29T22:46:16.303Z,21.62
2017-11-29T22:48:50.733Z,29.55
2017-11-29T22:51:25.038Z,28.60
2017-11-29T22:53:59.393Z,24.63
2017-11-29T22:56:34.670Z,24.12
2017-11-29T22:59:09.194Z,28.80
2017-11-29T23:01:43.671Z,25.35
2017-11-29T23:04:18.160Z,26.60
2017-11-29T23:06:52.561Z,26.58
2017-11-29T23:09:26.897Z,26.10
2017-11-29T23:12:02.190Z,27.45
2017-11-29T23:14:36.694Z,33.03
2017-11-29T23:17:11.174Z,25.27
2017-11-29T23:19:45.508Z,26.73
2017-11-29T23:22:19.851Z,27.20
2017-11-29T23:24:54.704Z,27.00
2017-11-29T23:27:29.092Z,17.95
2017-11-29T23:30:03.390Z,25.50
2017-11-29T23:32:37.813Z,25.35
2017-11-29T23:35:12.255Z,29.23
2017-11-29T23:37:46.772Z,22.25
2017-11-29T23:40:21.158Z,25.40
2017-11-29T23:42:55.532Z,23.90
2017-11-29T23:45:29.890Z,23.55
2017-11-29T23:48:04.262Z,23.15
2017-11-29T23:50:38.705Z,24.15
2017-11-29T23:53:13.156Z,26.00
2017-11-29T23:55:47.629Z,21.45
2017-11-29T23:58:21.947Z,26.42
